M/T Arcadia — SY7849 — position and weather

sailwx.info

Track history (hours):
 
Tides and Currents Weather Stations Pressure Air Temp Water Temp Dewpoint Dewpoint Depression Visibility Wind Speed Wind Dir Waves Ship Positions

M/T Arcadia

Last reported at 2014-Jul-23 06:28 UTC. Time now 2014-Jul-23 09:49 UTC.
Position N 35°58' E 023°57'.

Length 76 m; draft 4.6 m.

Type: Ship. MMSI: 240560000.

Date/timePositionNaut miles runAvg speedWind from/ knotsBaromVisibWave heightAir tempDewpointWater temp
2014-Jul-23 06:28N 35°58' E 023°57'22 7.6
2014-Jul-23 03:31N 36°20' E 023°51'7 7.7
2014-Jul-23 02:33N 36°27' E 023°49'8 7.5
2014-Jul-23 01:33N 36°34' E 023°47'8 7.3
2014-Jul-23 00:25N 36°43' E 023°45'8 8.1
2014-Jul-22 23:25N 36°51' E 023°43'7 7.9
2014-Jul-22 22:33N 36°57' E 023°41'19 7.8
2014-Jul-22 20:11N 37°16' E 023°38'14 8.0
2014-Jul-22 18:27N 37°29' E 023°34'7 8.2
2014-Jul-22 17:33N 37°35' E 023°29'8 7.8
2014-Jul-22 16:33N 37°40' E 023°21'8 7.4
2014-Jul-22 15:32N 37°46' E 023°15'8 7.9
2014-Jul-22 14:27N 37°52' E 023°08'3 0.1
2014-Jul-21 13:28N 37°55' E 023°06'0 0.0
2014-Jul-21 12:31N 37°55' E 023°06'0 0.0
2014-Jul-21 11:25N 37°55' E 023°06'9 2.3
2014-Jul-21 07:33N 37°48' E 023°13'9 8.7
2014-Jul-21 06:33N 37°40' E 023°18'58 8.1
2014-Jul-20 23:26N 36°47' E 023°47'34 8.6
2014-Jul-20 19:31N 36°14' E 023°54'9 8.8
2014-Jul-20 18:28N 36°05' E 023°56'10 8.7
2014-Jul-20 17:21N 35°55' E 023°57'5 0.3
2014-Jul-19 22:23N 36°01' E 023°57'7 7.4
2014-Jul-19 21:28N 36°07' E 023°55'25 7.6
2014-Jul-19 18:07N 36°32' E 023°49'5 7.7
2014-Jul-19 17:31N 36°37' E 023°48'8 7.9
2014-Jul-19 16:30N 36°45' E 023°46'41 7.7
2014-Jul-19 11:13N 37°25' E 023°36'5 8.1
2014-Jul-19 10:33N 37°30' E 023°35'8 8.2
2014-Jul-19 09:33N 37°37' E 023°30'8 7.9
2014-Jul-19 08:33N 37°40' E 023°20'8 8.1
2014-Jul-19 07:33N 37°46' E 023°14'9 8.8
2014-Jul-19 06:33N 37°53' E 023°07'2 1.0
2014-Jul-19 04:20N 37°55' E 023°05'1 0.1
2014-Jul-18 09:24N 37°54' E 023°06'7 8.0
2014-Jul-18 08:33N 37°49' E 023°12'17 8.4
2014-Jul-18 06:31N 37°38' E 023°28'12 8.4
2014-Jul-18 05:05N 37°27' E 023°35'32 8.8
2014-Jul-18 01:24N 36°55' E 023°37'8 8.6
2014-Jul-18 00:31N 36°47' E 023°40'12 8.6
2014-Jul-17 23:04N 36°36' E 023°46'4 8.5
2014-Jul-17 22:33N 36°32' E 023°47'9 8.6
2014-Jul-17 21:32N 36°23' E 023°51'9 9.0
2014-Jul-17 20:30N 36°14' E 023°54'84 2.1
2014-Jul-16 04:14N 37°36' E 023°30'5 8.0
2014-Jul-16 03:33N 37°39' E 023°24'8 7.5
2014-Jul-16 02:31N 37°43' E 023°16'8 8.4
2014-Jul-16 01:33N 37°50' E 023°11'6 0.7
2014-Jul-15 16:06N 37°55' E 023°05'0 0.0
2014-Jul-15 13:24N 37°55' E 023°05'0 0.1
2014-Jul-15 10:33N 37°55' E 023°06'6 6.2
2014-Jul-15 09:33N 37°51' E 023°11'8 8.0
2014-Jul-15 08:33N 37°44' E 023°16'8 8.0
2014-Jul-15 07:33N 37°39' E 023°24'8 8.0
2014-Jul-15 06:33N 37°34' E 023°32'48 8.7
2014-Jul-15 01:03N 36°47' E 023°43'13 8.6
2014-Jul-14 23:33N 36°34' E 023°45'11 8.6
2014-Jul-14 22:19N 36°24' E 023°47'7 8.8
2014-Jul-14 21:33N 36°17' E 023°49'10 8.4
2014-Jul-14 20:24N 36°08' E 023°51'15 7.7
2014-Jul-14 18:26N 35°53' E 023°56'7 7.6
2014-Jul-14 17:31N 35°46' E 023°57'  
Track history (hours):
 
Tides and Currents Weather Stations Pressure Air Temp Water Temp Dewpoint Dewpoint Depression Visibility Wind Speed Wind Dir Waves Ship Positions

M/T Arcadia

Last reported at 2014-Jul-23 06:28 UTC. Time now 2014-Jul-23 09:49 UTC.
Position N 35°58' E 023°57'.

Length 76 m; draft 4.6 m.

Type: Ship. MMSI: 240560000.

Date/timePositionNaut miles runAvg speedWind from/ knotsBaromVisibWave heightAir tempDewpointWater temp
2014-Jul-23 06:28N 35°58' E 023°57'22 7.6
2014-Jul-23 03:31N 36°20' E 023°51'7 7.7
2014-Jul-23 02:33N 36°27' E 023°49'8 7.5
2014-Jul-23 01:33N 36°34' E 023°47'8 7.3
2014-Jul-23 00:25N 36°43' E 023°45'8 8.1
2014-Jul-22 23:25N 36°51' E 023°43'7 7.9
2014-Jul-22 22:33N 36°57' E 023°41'19 7.8
2014-Jul-22 20:11N 37°16' E 023°38'14 8.0
2014-Jul-22 18:27N 37°29' E 023°34'7 8.2
2014-Jul-22 17:33N 37°35' E 023°29'8 7.8
2014-Jul-22 16:33N 37°40' E 023°21'8 7.4
2014-Jul-22 15:32N 37°46' E 023°15'8 7.9
2014-Jul-22 14:27N 37°52' E 023°08'3 0.1
2014-Jul-21 13:28N 37°55' E 023°06'0 0.0
2014-Jul-21 12:31N 37°55' E 023°06'0 0.0
2014-Jul-21 11:25N 37°55' E 023°06'9 2.3
2014-Jul-21 07:33N 37°48' E 023°13'9 8.7
2014-Jul-21 06:33N 37°40' E 023°18'58 8.1
2014-Jul-20 23:26N 36°47' E 023°47'34 8.6
2014-Jul-20 19:31N 36°14' E 023°54'9 8.8
2014-Jul-20 18:28N 36°05' E 023°56'10 8.7
2014-Jul-20 17:21N 35°55' E 023°57'5 0.3
2014-Jul-19 22:23N 36°01' E 023°57'7 7.4
2014-Jul-19 21:28N 36°07' E 023°55'25 7.6
2014-Jul-19 18:07N 36°32' E 023°49'5 7.7
2014-Jul-19 17:31N 36°37' E 023°48'8 7.9
2014-Jul-19 16:30N 36°45' E 023°46'41 7.7
2014-Jul-19 11:13N 37°25' E 023°36'5 8.1
2014-Jul-19 10:33N 37°30' E 023°35'8 8.2
2014-Jul-19 09:33N 37°37' E 023°30'8 7.9
2014-Jul-19 08:33N 37°40' E 023°20'8 8.1
2014-Jul-19 07:33N 37°46' E 023°14'9 8.8
2014-Jul-19 06:33N 37°53' E 023°07'2 1.0
2014-Jul-19 04:20N 37°55' E 023°05'1 0.1
2014-Jul-18 09:24N 37°54' E 023°06'7 8.0
2014-Jul-18 08:33N 37°49' E 023°12'17 8.4
2014-Jul-18 06:31N 37°38' E 023°28'12 8.4
2014-Jul-18 05:05N 37°27' E 023°35'32 8.8
2014-Jul-18 01:24N 36°55' E 023°37'8 8.6
2014-Jul-18 00:31N 36°47' E 023°40'12 8.6
2014-Jul-17 23:04N 36°36' E 023°46'4 8.5
2014-Jul-17 22:33N 36°32' E 023°47'9 8.6
2014-Jul-17 21:32N 36°23' E 023°51'9 9.0
2014-Jul-17 20:30N 36°14' E 023°54'84 2.1
2014-Jul-16 04:14N 37°36' E 023°30'5 8.0
2014-Jul-16 03:33N 37°39' E 023°24'8 7.5
2014-Jul-16 02:31N 37°43' E 023°16'8 8.4
2014-Jul-16 01:33N 37°50' E 023°11'6 0.7
2014-Jul-15 16:06N 37°55' E 023°05'0 0.0
2014-Jul-15 13:24N 37°55' E 023°05'0 0.1
2014-Jul-15 10:33N 37°55' E 023°06'6 6.2
2014-Jul-15 09:33N 37°51' E 023°11'8 8.0
2014-Jul-15 08:33N 37°44' E 023°16'8 8.0
2014-Jul-15 07:33N 37°39' E 023°24'8 8.0
2014-Jul-15 06:33N 37°34' E 023°32'48 8.7
2014-Jul-15 01:03N 36°47' E 023°43'13 8.6
2014-Jul-14 23:33N 36°34' E 023°45'11 8.6
2014-Jul-14 22:19N 36°24' E 023°47'7 8.8
2014-Jul-14 21:33N 36°17' E 023°49'10 8.4
2014-Jul-14 20:24N 36°08' E 023°51'15 7.7
2014-Jul-14 18:26N 35°53' E 023°56'7 7.6
2014-Jul-14 17:31N 35°46' E 023°57'  

Dump ship's entire track history